Time;durP1;ratioP1;P1;durP2;ratioP2;P2;SDS_P1;SDS_P2;PMS_P1;PMS_P2;Temp;Humidity;BMP_temperature;BMP_pressure;BME280_temperature;BME280_humidity;BME280_pressure;Samples;Min_cycle;Max_cycle;Signal;HPM_P1;HPM_P2
2022/02/08 00:02:16;;;;;;;24.80;6.70;;;;;;;1.60;73.02;98861.43;106034;1274;97870;-76
2022/02/08 00:04:44;;;;;;;25.50;7.30;;;;;;;1.59;72.82;98865.86;106110;1274;107698;-75
2022/02/08 00:07:12;;;;;;;28.40;7.10;;;;;;;1.57;72.77;98862.45;106122;1274;97930;-74
2022/02/08 00:09:40;;;;;;;25.30;6.60;;;;;;;1.55;72.74;98864.60;106144;1274;97954;-74
2022/02/08 00:12:12;;;;;;;27.60;7.10;;;;;;;1.55;72.73;98866.55;106082;1274;112436;-74
2022/02/08 00:14:40;;;;;;;24.30;6.10;;;;;;;1.54;72.83;98865.51;106143;1274;97956;-75
2022/02/08 00:17:09;;;;;;;28.90;6.80;;;;;;;1.54;72.86;98866.59;106026;1274;107833;-76
2022/02/08 00:19:37;;;;;;;24.80;5.90;;;;;;;1.53;72.73;98870.26;106053;1274;97959;-75
2022/02/08 00:22:05;;;;;;;27.10;6.90;;;;;;;1.54;72.96;98872.00;106024;1274;97825;-75
2022/02/08 00:24:35;;;;;;;28.40;6.20;;;;;;;1.53;72.91;98871.86;105991;1274;111275;-75
2022/02/08 00:27:06;;;;;;;26.50;6.10;;;;;;;1.52;72.86;98880.11;106055;1274;95215;-74
2022/02/08 00:29:34;;;;;;;24.90;6.30;;;;;;;1.52;72.78;98879.91;106082;1274;108259;-73
2022/02/08 00:32:06;;;;;;;30.90;7.40;;;;;;;1.52;72.84;98879.05;106046;1275;95957;-73
2022/02/08 00:34:35;;;;;;;27.60;7.20;;;;;;;1.51;72.76;98877.86;106062;1274;96310;-73
2022/02/08 00:37:05;;;;;;;25.50;6.20;;;;;;;1.51;72.77;98886.79;106081;1274;111430;-72
2022/02/08 00:39:34;;;;;;;30.10;7.50;;;;;;;1.51;72.76;98885.21;106101;1274;96308;-73
2022/02/08 00:42:07;;;;;;;26.30;6.50;;;;;;;1.50;72.95;98887.00;106100;1274;108003;-74
2022/02/08 00:44:55;;;;;;;29.90;7.30;;;;;;;1.51;72.90;98888.90;106092;1274;95257;-75
2022/02/08 00:47:32;;;;;;;27.80;6.40;;;;;;;1.49;72.75;98893.48;106082;1274;95272;-75
2022/02/08 00:50:06;;;;;;;30.70;5.90;;;;;;;1.49;72.79;98895.05;106144;1274;110329;-76
2022/02/08 00:52:38;;;;;;;24.10;6.60;;;;;;;1.50;72.98;98902.18;106040;1274;97883;-76
2022/02/08 00:55:10;;;;;;;25.30;7.50;;;;;;;1.50;72.71;98901.50;105998;1274;109965;-74
2022/02/08 00:57:38;;;;;;;26.20;5.80;;;;;;;1.49;72.80;98903.45;106040;1274;98077;-75
2022/02/08 01:00:10;;;;;;;25.70;6.50;;;;;;;1.48;72.82;98900.33;106087;1274;97860;-73
2022/02/08 01:02:37;;;;;;;25.30;7.10;;;;;;;1.48;72.95;98902.61;106045;1274;111302;-76
2022/02/08 01:05:11;;;;;;;26.80;6.60;;;;;;;1.48;72.98;98907.70;106051;1274;97974;-75
2022/02/08 01:07:40;;;;;;;23.10;5.90;;;;;;;1.47;72.64;98908.06;106072;1274;107790;-74
2022/02/08 01:10:11;;;;;;;24.00;6.40;;;;;;;1.47;72.84;98907.90;106016;1274;96436;-75
2022/02/08 01:12:47;;;;;;;22.80;6.10;;;;;;;1.48;72.76;98911.88;106175;1274;97859;-74
2022/02/08 01:15:18;;;;;;;26.90;6.60;;;;;;;1.49;72.92;98913.07;106102;1274;111039;-75
2022/02/08 01:17:53;;;;;;;26.80;6.60;;;;;;;1.49;72.76;98923.55;106104;1274;97855;-74
2022/02/08 01:20:32;;;;;;;30.00;6.90;;;;;;;1.50;72.69;98928.08;106115;1274;108829;-73
2022/02/08 01:23:09;;;;;;;32.40;6.30;;;;;;;1.50;72.64;98929.45;106087;1274;97919;-74
2022/02/08 01:25:45;;;;;;;28.80;7.20;;;;;;;1.51;72.59;98927.16;106172;1274;97874;-75
2022/02/08 01:39:19;;;;;;;25.90;6.60;;;;;;;1.50;72.75;98931.38;106126;1274;97896;-73
2022/02/08 01:47:21;;;;;;;24.60;6.20;;;;;;;1.55;72.66;98930.52;106005;1274;107723;-73
2022/02/08 01:52:28;;;;;;;;;;;;;;;1.55;72.66;98937.47;106115;1274;97958;-75
2022/02/08 01:54:59;;;;;;;31.00;7.50;;;;;;;1.53;72.89;98934.59;106131;1274;111283;-74
2022/02/08 01:57:26;;;;;;;25.50;5.80;;;;;;;1.54;72.61;98936.29;105983;1274;98079;-75
2022/02/08 01:59:57;;;;;;;30.80;6.10;;;;;;;1.54;72.73;98942.07;106018;1274;107326;-75
2022/02/08 02:02:25;;;;;;;26.40;7.30;;;;;;;1.55;72.61;98939.77;106022;1274;97871;-75
2022/02/08 02:04:53;;;;;;;35.10;8.10;;;;;;;1.54;72.67;98938.21;106191;1274;97936;-74
2022/02/08 02:07:23;;;;;;;30.40;6.90;;;;;;;1.54;72.67;98945.05;106124;1274;110933;-75
2022/02/08 02:09:51;;;;;;;28.90;6.70;;;;;;;1.54;72.70;98951.33;106137;1274;97847;-74
2022/02/08 02:12:20;;;;;;;35.00;9.00;;;;;;;1.54;72.65;98949.40;105970;1276;109158;-74
2022/02/08 02:14:47;;;;;;;26.30;5.70;;;;;;;1.55;72.64;98949.39;106087;1274;97841;-73
2022/02/08 02:17:17;;;;;;;28.60;6.90;;;;;;;1.56;72.56;98951.42;106170;1274;97749;-74
2022/02/08 02:19:47;;;;;;;31.90;6.10;;;;;;;1.56;72.51;98955.79;106024;1274;111204;-72
2022/02/08 02:22:17;;;;;;;34.00;7.70;;;;;;;1.56;72.30;98964.38;105956;1274;95182;-74
2022/02/08 02:24:45;;;;;;;28.10;6.40;;;;;;;1.57;72.31;98972.00;106138;1274;108341;-74
2022/02/08 02:27:13;;;;;;;24.60;7.20;;;;;;;1.58;72.60;98979.32;106099;1274;95908;-76
2022/02/08 02:29:41;;;;;;;31.90;6.10;;;;;;;1.58;72.74;98982.11;106104;1274;95269;-74
2022/02/08 02:32:09;;;;;;;29.20;6.20;;;;;;;1.56;72.62;98980.81;106074;1274;111829;-73
2022/02/08 02:34:50;;;;;;;26.70;6.10;;;;;;;1.52;72.84;98985.99;106183;1274;95209;-73
2022/02/08 02:37:19;;;;;;;26.60;5.60;;;;;;;1.46;72.58;98992.69;106142;1274;107778;-74
2022/02/08 02:39:47;;;;;;;28.80;7.60;;;;;;;1.36;72.19;98999.85;106159;1274;97915;-75
2022/02/08 02:42:18;;;;;;;24.90;5.80;;;;;;;1.27;72.46;98994.08;106102;1274;97874;-73
2022/02/08 02:44:46;;;;;;;29.70;6.40;;;;;;;1.22;72.64;98999.84;106007;1274;111444;-73
2022/02/08 02:47:14;;;;;;;31.90;7.60;;;;;;;1.17;72.64;99000.71;106027;1274;97991;-73
2022/02/08 02:49:42;;;;;;;27.80;6.30;;;;;;;1.14;72.70;99003.77;106080;1274;107667;-73
2022/02/08 02:52:10;;;;;;;32.10;7.70;;;;;;;1.13;72.70;99008.71;106107;1274;97975;-72
2022/02/08 02:54:38;;;;;;;33.90;9.20;;;;;;;1.11;72.87;99014.73;106102;1274;97025;-75
2022/02/08 02:57:06;;;;;;;38.80;8.70;;;;;;;1.09;72.76;99015.48;106126;1274;111072;-73
2022/02/08 02:59:36;;;;;;;29.80;7.50;;;;;;;1.08;72.85;99015.86;106073;1274;95212;-71
2022/02/08 03:05:02;;;;;;;30.60;7.00;;;;;;;1.03;72.79;99016.71;106063;1274;98776;-72
2022/02/08 03:18:39;;;;;;;31.10;7.50;;;;;;;0.99;72.86;99030.13;106166;1274;97952;-74
2022/02/08 03:21:12;;;;;;;34.40;8.40;;;;;;;1.00;73.20;99034.65;106170;1274;97977;-74
2022/02/08 03:23:41;;;;;;;22.70;6.30;;;;;;;1.02;72.83;99035.80;106165;1274;112173;-75
2022/02/08 03:26:09;;;;;;;23.60;5.90;;;;;;;1.04;73.01;99041.14;106136;1275;97789;-78
2022/02/08 03:28:37;;;;;;;30.70;6.30;;;;;;;1.06;73.22;99044.06;106145;1274;106062;-75
2022/02/08 03:31:09;;;;;;;31.00;6.60;;;;;;;1.07;73.27;99045.77;106168;1274;97980;-74
2022/02/08 03:33:37;;;;;;;32.10;7.10;;;;;;;1.08;73.14;99049.91;106072;1274;137103;-74
2022/02/08 03:36:06;;;;;;;33.60;7.80;;;;;;;1.11;73.12;99050.88;106169;1274;111263;-73
2022/02/08 03:38:38;;;;;;;23.90;6.50;;;;;;;1.12;73.16;99055.02;106095;1274;97982;-74
2022/02/08 03:41:08;;;;;;;25.60;6.20;;;;;;;1.14;73.30;99058.60;106019;1275;107683;-73
2022/02/08 03:43:45;;;;;;;31.70;6.50;;;;;;;1.16;73.21;99063.63;106047;1274;97909;-73
2022/02/08 03:46:19;;;;;;;25.70;6.00;;;;;;;1.17;73.12;99065.16;106143;1274;95258;-75
2022/02/08 03:48:49;;;;;;;34.40;8.00;;;;;;;1.19;73.24;99068.77;106021;1275;111386;-73
2022/02/08 03:51:19;;;;;;;31.10;7.30;;;;;;;1.19;73.21;99070.00;106170;1273;97956;-74
2022/02/08 03:53:49;;;;;;;29.30;7.20;;;;;;;1.19;73.24;99076.63;106131;1274;107889;-76
2022/02/08 03:56:21;;;;;;;23.30;6.30;;;;;;;1.20;73.25;99083.06;106124;1274;95289;-74
2022/02/08 03:58:55;;;;;;;27.50;6.40;;;;;;;1.21;73.13;99083.23;106226;1274;95427;-74
2022/02/08 04:06:40;;;;;;;26.60;6.30;;;;;;;1.24;73.15;99095.31;106060;1274;106912;-75
2022/02/08 04:09:12;;;;;;;24.00;5.30;;;;;;;1.26;73.13;99100.67;106003;1274;95474;-75
2022/02/08 04:11:53;;;;;;;26.10;5.70;;;;;;;1.26;73.35;99103.83;106131;1274;95375;-74
2022/02/08 04:14:49;;;;;;;30.30;6.40;;;;;;;1.26;73.32;99102.77;106118;1274;111491;-75
2022/02/08 04:31:25;;;;;;;27.40;6.40;;;;;;;1.27;73.52;99114.11;105931;1275;107679;-75
2022/02/08 04:41:36;;;;;;;25.50;6.30;;;;;;;1.29;73.64;99133.95;106157;1274;110834;-73
2022/02/08 04:49:08;;;;;;;27.70;6.90;;;;;;;1.31;73.62;99150.66;106188;1274;97943;-72
2022/02/08 04:51:44;;;;;;;24.40;6.50;;;;;;;1.32;73.75;99152.02;106198;1274;97880;-76
2022/02/08 05:35:27;;;;;;;28.90;6.60;;;;;;;1.49;73.82;99225.17;106237;1274;111630;-75
2022/02/08 05:49:04;;;;;;;31.10;7.00;;;;;;;1.53;73.65;99243.77;106051;1274;111402;-75
2022/02/08 05:51:59;;;;;;;31.30;7.90;;;;;;;1.54;73.58;99245.50;106068;1274;98056;-76
2022/02/08 05:54:29;;;;;;;34.90;8.50;;;;;;;1.55;73.77;99251.40;106091;1274;107717;-77
2022/02/08 05:56:57;;;;;;;28.40;6.80;;;;;;;1.56;73.65;99254.36;106003;1275;97886;-76
2022/02/08 05:59:25;;;;;;;33.40;7.00;;;;;;;1.56;73.77;99249.63;106175;1273;97952;-76
2022/02/08 06:01:55;;;;;;;32.50;8.40;;;;;;;1.56;73.67;99248.92;106110;1274;114025;-76
2022/02/08 06:04:22;;;;;;;28.00;7.00;;;;;;;1.55;73.85;99254.36;106075;1274;98015;-76
2022/02/08 06:06:50;;;;;;;28.50;7.70;;;;;;;1.56;73.81;99256.61;106088;1274;107846;-77
2022/02/08 06:09:20;;;;;;;30.70;6.70;;;;;;;1.57;73.72;99261.48;106173;1274;96963;-76
2022/02/08 06:11:50;;;;;;;33.10;7.50;;;;;;;1.57;73.71;99263.56;106131;1274;95665;-76
2022/02/08 06:14:25;;;;;;;26.90;6.60;;;;;;;1.58;73.85;99276.30;106160;1274;112407;-76
2022/02/08 06:16:55;;;;;;;31.40;7.20;;;;;;;1.60;74.11;99279.55;106088;1277;98073;-76
2022/02/08 06:19:26;;;;;;;30.00;8.40;;;;;;;1.61;73.73;99288.60;106004;1277;107826;-76
2022/02/08 06:21:54;;;;;;;22.10;6.80;;;;;;;1.62;73.88;99291.90;106026;1276;95278;-78
2022/02/08 06:24:22;;;;;;;29.00;7.20;;;;;;;1.63;73.51;99296.77;106062;1276;97860;-77
2022/02/08 06:26:50;;;;;;;28.10;7.10;;;;;;;1.63;73.64;99295.01;106002;1275;111182;-76
2022/02/08 06:29:23;;;;;;;33.90;7.60;;;;;;;1.62;73.84;99301.48;106054;1275;97753;-77
2022/02/08 06:31:54;;;;;;;35.00;8.00;;;;;;;1.64;73.68;99304.08;106003;1276;107777;-77
2022/02/08 06:34:25;;;;;;;30.30;6.50;;;;;;;1.64;73.89;99305.44;106109;1275;97972;-76
2022/02/08 06:37:01;;;;;;;30.20;6.70;;;;;;;1.67;73.68;99304.15;106013;1277;97904;-76
2022/02/08 06:39:35;;;;;;;34.70;6.90;;;;;;;1.69;73.87;99312.83;106087;1277;111363;-75
2022/02/08 06:42:08;;;;;;;25.50;6.50;;;;;;;1.71;73.94;99318.89;106054;1275;97955;-76
2022/02/08 06:44:42;;;;;;;28.60;6.40;;;;;;;1.72;73.64;99325.14;106146;1274;108220;-76
2022/02/08 06:47:10;;;;;;;25.10;6.70;;;;;;;1.73;73.85;99321.61;106097;1275;97742;-77
2022/02/08 06:49:40;;;;;;;29.30;6.90;;;;;;;1.74;73.69;99325.60;106182;1275;95267;-77
2022/02/08 06:52:09;;;;;;;28.40;6.70;;;;;;;1.75;73.86;99325.04;106143;1275;111515;-77
2022/02/08 06:54:37;;;;;;;29.30;7.10;;;;;;;1.77;73.69;99334.42;106092;1277;97937;-76
2022/02/08 06:57:11;;;;;;;28.30;6.20;;;;;;;1.80;73.94;99337.49;105904;1275;106692;-76
2022/02/08 06:59:40;;;;;;;22.60;6.80;;;;;;;1.80;73.85;99337.31;105967;1275;96266;-78
2022/02/08 07:02:11;;;;;;;26.00;6.20;;;;;;;1.82;73.72;99333.23;105959;1277;97948;-78
2022/02/08 07:04:38;;;;;;;27.20;7.20;;;;;;;1.83;73.79;99339.16;105878;1274;111515;-77
2022/02/08 07:07:08;;;;;;;27.60;7.00;;;;;;;1.84;73.67;99344.89;106068;1275;97901;-77
2022/02/08 07:09:40;;;;;;;31.00;6.20;;;;;;;1.85;73.63;99343.25;105976;1274;107841;-76
2022/02/08 07:12:14;;;;;;;27.10;6.30;;;;;;;1.87;73.87;99348.09;105970;1275;95987;-76
2022/02/08 07:14:44;;;;;;;29.70;6.10;;;;;;;1.89;73.59;99352.23;106090;1274;97858;-75
2022/02/08 07:17:14;;;;;;;25.40;6.30;;;;;;;1.90;73.68;99354.13;106068;1275;111495;-76
2022/02/08 07:19:41;;;;;;;27.70;6.20;;;;;;;1.91;73.69;99356.36;106125;1276;95798;-77
2022/02/08 07:22:09;;;;;;;27.10;6.50;;;;;;;1.92;73.79;99360.86;106142;1274;107725;-79
2022/02/08 07:24:37;;;;;;;27.30;6.30;;;;;;;1.94;73.77;99363.61;106109;1274;98084;-78
2022/02/08 07:27:05;;;;;;;29.60;7.00;;;;;;;1.96;73.76;99363.74;106110;1274;96227;-77
2022/02/08 07:29:38;;;;;;;32.10;6.40;;;;;;;1.97;73.86;99369.28;106133;1274;112019;-77
2022/02/08 07:32:09;;;;;;;22.20;6.70;;;;;;;2.00;73.74;99373.39;106073;1274;97955;-78
2022/02/08 07:34:43;;;;;;;20.80;5.80;;;;;;;2.00;73.70;99378.46;106117;1274;107748;-76
2022/02/08 07:37:21;;;;;;;25.70;6.80;;;;;;;2.00;73.57;99382.66;106097;1274;97985;-73
2022/02/08 07:39:53;;;;;;;30.50;6.70;;;;;;;1.99;73.44;99380.08;106174;1274;97988;-76
2022/02/08 07:42:21;;;;;;;25.80;6.40;;;;;;;2.01;73.73;99381.95;106109;1274;112121;-76
2022/02/08 07:44:49;;;;;;;24.70;5.90;;;;;;;2.01;73.63;99385.78;106100;1274;96475;-77
2022/02/08 07:47:17;;;;;;;27.20;5.50;;;;;;;2.03;73.83;99389.91;106066;1274;108240;-76
2022/02/08 07:49:45;;;;;;;28.30;7.30;;;;;;;2.05;73.48;99391.94;106090;1274;97987;-77
2022/02/08 07:52:16;;;;;;;27.70;6.80;;;;;;;2.06;73.25;99394.70;106120;1274;97875;-75
2022/02/08 07:54:47;;;;;;;29.20;7.00;;;;;;;2.06;73.54;99397.16;106083;1274;110379;-76
2022/02/08 07:57:16;;;;;;;23.80;6.00;;;;;;;2.07;73.76;99400.80;106108;1274;98058;-77
2022/02/08 07:59:44;;;;;;;25.50;5.70;;;;;;;2.07;73.61;99403.78;106186;1274;107770;-76
2022/02/08 08:02:12;;;;;;;28.50;6.90;;;;;;;2.07;73.65;99408.85;106167;1274;97948;-77
2022/02/08 08:04:40;;;;;;;27.50;6.90;;;;;;;2.08;73.51;99407.95;106166;1274;97943;-76
2022/02/08 08:07:07;;;;;;;23.70;6.20;;;;;;;2.07;73.52;99416.02;105994;1276;111890;-76
2022/02/08 08:09:40;;;;;;;36.20;8.10;;;;;;;2.04;73.47;99419.26;106053;1274;97886;-75
2022/02/08 08:12:14;;;;;;;27.80;6.80;;;;;;;2.00;73.32;99415.55;106103;1274;107467;-76
2022/02/08 08:14:43;;;;;;;19.80;6.10;;;;;;;1.97;73.50;99414.08;106102;1274;98487;-75
2022/02/08 08:19:47;;;;;;;29.90;6.90;;;;;;;1.93;73.50;99418.22;106046;1274;113899;-73
2022/02/08 08:22:18;;;;;;;26.60;6.10;;;;;;;1.90;73.46;99415.32;106043;1274;98833;-76
2022/02/08 08:24:49;;;;;;;27.00;6.40;;;;;;;1.90;73.53;99417.08;106061;1274;107759;-77
2022/02/08 08:27:18;;;;;;;26.20;6.10;;;;;;;1.91;73.60;99420.38;106073;1274;97839;-78
2022/02/08 08:29:50;;;;;;;27.80;7.50;;;;;;;1.89;73.59;99421.31;106091;1274;99008;-76
2022/02/08 08:32:18;;;;;;;24.30;6.70;;;;;;;1.86;73.37;99417.55;106206;1274;111432;-76
2022/02/08 08:34:46;;;;;;;24.50;7.00;;;;;;;1.84;73.69;99414.81;106175;1274;97572;-77
2022/02/08 08:37:14;;;;;;;29.10;6.80;;;;;;;1.84;73.76;99417.08;106006;1275;105756;-75
2022/02/08 08:39:48;;;;;;;32.80;8.00;;;;;;;1.86;73.51;99426.66;106008;1275;97921;-75
2022/02/08 08:51:00;;;;;;;23.80;7.20;;;;;;;1.92;73.77;99422.97;106097;1274;107670;-78
2022/02/08 08:53:33;;;;;;;20.60;5.50;;;;;;;1.96;73.77;99428.80;106090;1274;97857;-76
2022/02/08 08:56:04;;;;;;;31.00;7.60;;;;;;;2.00;73.50;99429.37;106120;1274;97940;-77
2022/02/08 08:58:32;;;;;;;34.90;8.60;;;;;;;2.06;73.67;99436.33;106082;1274;110386;-77
2022/02/08 09:01:00;;;;;;;29.60;8.60;;;;;;;2.13;73.86;99437.54;106167;1274;95896;-77
2022/02/08 09:03:29;;;;;;;25.00;7.20;;;;;;;2.16;73.79;99433.75;106111;1274;108155;-77
2022/02/08 09:05:57;;;;;;;25.60;7.30;;;;;;;2.21;73.65;99438.31;106033;1274;97761;-77
2022/02/08 09:08:30;;;;;;;29.00;7.30;;;;;;;2.26;73.87;99444.29;106156;1274;97818;-76
2022/02/08 09:11:16;;;;;;;27.10;7.00;;;;;;;2.27;73.66;99444.06;106105;1274;111433;-77
2022/02/08 09:13:55;;;;;;;26.00;6.40;;;;;;;2.28;73.81;99443.86;106052;1274;97902;-78
2022/02/08 09:17:17;;;;;;;31.60;7.30;;;;;;;2.32;73.67;99442.86;106155;1274;108405;-77
2022/02/08 09:27:32;;;;;;;27.60;8.90;;;;;;;2.48;73.99;99447.77;106041;1274;98572;-77
2022/02/08 09:30:01;;;;;;;31.00;8.50;;;;;;;2.49;73.70;99452.29;106074;1274;107868;-77
2022/02/08 09:32:45;;;;;;;25.10;7.20;;;;;;;2.49;73.69;99453.16;106102;1274;95383;-77
2022/02/08 09:35:19;;;;;;;26.20;7.20;;;;;;;2.50;73.71;99448.56;106093;1275;96783;-77
2022/02/08 09:37:50;;;;;;;28.30;7.10;;;;;;;2.50;73.56;99450.68;106071;1274;111226;-76
2022/02/08 09:40:22;;;;;;;25.60;6.10;;;;;;;2.51;73.54;99447.50;106084;1274;98065;-76
2022/02/08 09:42:55;;;;;;;27.90;7.10;;;;;;;2.52;73.99;99444.11;106076;1274;107673;-78
2022/02/08 09:45:25;;;;;;;27.50;6.80;;;;;;;2.57;73.60;99447.84;106037;1274;97845;-77
2022/02/08 09:48:02;;;;;;;24.00;5.90;;;;;;;2.60;73.72;99444.77;106070;1274;97858;-78
2022/02/08 09:50:34;;;;;;;26.20;5.80;;;;;;;2.62;73.41;99447.30;106016;1274;111455;-75
2022/02/08 09:53:14;;;;;;;25.50;6.70;;;;;;;2.63;73.52;99444.29;106118;1274;97931;-77
2022/02/08 09:55:45;;;;;;;28.20;7.80;;;;;;;2.65;73.29;99437.75;106070;1274;108513;-74
2022/02/08 09:58:13;;;;;;;22.60;6.30;;;;;;;2.66;73.51;99443.29;106058;1274;95356;-77
2022/02/08 10:00:43;;;;;;;31.60;8.00;;;;;;;2.71;73.47;99442.44;105998;1274;96013;-77
2022/02/08 10:03:17;;;;;;;27.50;6.50;;;;;;;2.77;73.27;99442.25;106124;1274;111332;-77
2022/02/08 10:05:52;;;;;;;21.70;5.70;;;;;;;2.81;73.46;99442.46;105981;1274;97863;-76
2022/02/08 10:08:23;;;;;;;;;;;;;;;2.87;73.47;99448.20;106023;1274;107099;-75
2022/02/08 10:10:51;;;;;;;20.80;5.30;;;;;;;2.92;73.83;99448.54;106131;1274;97896;-76
2022/02/08 10:19:22;;;;;;;26.90;6.50;;;;;;;3.11;73.77;99431.04;106066;1274;97771;-76
2022/02/08 10:22:05;;;;;;;28.00;5.80;;;;;;;3.19;73.65;99433.95;106066;1274;107620;-77
2022/02/08 10:24:38;;;;;;;26.80;7.30;;;;;;;3.20;73.53;99431.27;106066;1274;97918;-78
2022/02/08 10:27:35;;;;;;;18.80;4.70;;;;;;;3.25;73.55;99427.06;106087;1274;97848;-78
2022/02/08 10:38:38;;;;;;;;;;;;;;;3.30;73.16;99430.23;106191;1274;97829;-76
2022/02/08 10:41:23;;;;;;;24.50;5.40;;;;;;;3.33;73.59;99429.76;106093;1274;96967;-78
2022/02/08 10:44:07;;;;;;;27.10;7.20;;;;;;;3.39;73.37;99430.94;106104;1274;111424;-77
2022/02/08 10:46:39;;;;;;;24.30;5.70;;;;;;;3.45;73.34;99432.64;106067;1274;98027;-76
2022/02/08 10:49:10;;;;;;;27.90;5.90;;;;;;;3.47;73.04;99426.94;106141;1274;107683;-77
2022/02/08 10:54:18;;;;;;;27.30;6.00;;;;;;;3.54;72.75;99413.86;106090;1274;97863;-76
2022/02/08 10:56:51;;;;;;;30.00;6.50;;;;;;;3.59;72.98;99411.59;105959;1274;111399;-76
2022/02/08 10:59:30;;;;;;;32.80;6.00;;;;;;;3.63;72.55;99407.92;105827;1274;97905;-76
2022/02/08 11:02:20;;;;;;;23.40;6.30;;;;;;;3.66;72.67;99403.78;106101;1274;106770;-77
2022/02/08 11:07:56;;;;;;;17.70;5.10;;;;;;;3.78;73.03;99390.52;106099;1274;98368;-77
2022/02/08 11:16:01;;;;;;;24.90;5.80;;;;;;;3.81;72.78;99383.20;106056;1274;107797;-77
2022/02/08 11:19:12;;;;;;;23.90;5.70;;;;;;;3.87;72.44;99379.30;105992;1274;99541;-76
2022/02/08 11:21:37;;;;;;;27.40;5.40;;;;;;;3.85;72.25;99381.29;105972;1274;97825;-77
2022/02/08 11:24:41;;;;;;;20.50;5.00;;;;;;;3.83;72.16;99383.48;106016;1274;111389;-79
2022/02/08 11:27:16;;;;;;;22.10;5.00;;;;;;;3.81;71.85;99387.61;106066;1274;98242;-78
2022/02/08 11:30:05;;;;;;;21.30;4.90;;;;;;;3.80;72.31;99385.00;106041;1274;107958;-80
2022/02/08 12:07:36;;;;;;;19.30;4.60;;;;;;;3.85;72.07;99367.61;105959;1274;97991;-76
2022/02/08 12:10:19;;;;;;;23.20;4.30;;;;;;;3.86;71.15;99359.34;107950;1274;107812;-76
2022/02/08 12:32:38;;;;;;;24.20;5.90;;;;;;;4.09;71.55;99349.80;106212;1274;111345;-76
2022/02/08 12:55:43;;;;;;;23.50;5.20;;;;;;;4.01;71.16;99342.73;106093;1274;97942;-76
2022/02/08 13:01:09;;;;;;;24.00;4.90;;;;;;;3.96;70.27;99342.42;106194;1274;111473;-77
2022/02/08 13:03:54;;;;;;;21.80;5.50;;;;;;;3.91;70.74;99344.20;106073;1274;95288;-76
2022/02/08 14:07:45;;;;;;;26.80;7.40;;;;;;;4.07;69.69;99307.60;106036;1274;97838;-75
2022/02/08 14:10:30;;;;;;;28.10;7.40;;;;;;;4.08;69.74;99311.38;105980;1272;111272;-74
2022/02/08 14:15:50;;;;;;;28.60;7.00;;;;;;;4.07;69.55;99305.13;105958;1274;107802;-75
2022/02/08 14:34:13;;;;;;;25.70;6.90;;;;;;;4.04;69.57;99297.55;106208;1274;97879;-75
2022/02/08 14:49:04;;;;;;;25.30;7.40;;;;;;;4.08;69.72;99295.94;106140;1274;107714;-77
2022/02/08 15:09:55;;;;;;;30.40;8.90;;;;;;;4.20;69.26;99257.73;105985;1274;108369;-75
2022/02/08 15:12:28;;;;;;;27.30;8.30;;;;;;;4.20;69.10;99249.80;106134;1274;98010;-74
2022/02/08 15:15:12;;;;;;;26.20;8.70;;;;;;;4.18;69.09;99250.27;106193;1274;97899;-75
2022/02/08 15:17:41;;;;;;;27.40;8.20;;;;;;;4.15;69.21;99253.52;106126;1274;110551;-75
2022/02/08 15:20:11;;;;;;;24.90;8.50;;;;;;;4.15;69.39;99250.55;106164;1274;97862;-76
2022/02/08 15:22:40;;;;;;;27.70;8.40;;;;;;;4.14;69.15;99252.54;106158;1274;106734;-75
2022/02/08 15:25:13;;;;;;;26.10;8.20;;;;;;;4.11;69.10;99253.33;106155;1274;97899;-75
2022/02/08 15:27:43;;;;;;;26.20;7.90;;;;;;;4.11;69.05;99251.61;106238;1273;97878;-74
2022/02/08 15:30:13;;;;;;;29.00;9.20;;;;;;;4.09;68.89;99240.27;106179;1274;112642;-81
2022/02/08 15:32:41;;;;;;;25.50;8.30;;;;;;;4.08;69.07;99230.16;105907;1274;190951;-81
2022/02/08 15:35:10;;;;;;;22.60;7.50;;;;;;;4.07;69.08;99233.34;106157;1274;107770;-81
2022/02/08 15:37:38;;;;;;;25.10;8.10;;;;;;;4.06;69.03;99226.92;106053;1274;97927;-75
2022/02/08 15:40:09;;;;;;;27.30;8.90;;;;;;;4.03;68.81;99234.23;106135;1274;95333;-76
2022/02/08 15:42:40;;;;;;;23.20;7.60;;;;;;;4.02;68.77;99234.45;106203;1274;111443;-74
2022/02/08 15:45:18;;;;;;;26.70;9.60;;;;;;;4.00;68.82;99234.85;106217;1274;97886;-72
2022/02/08 15:47:46;;;;;;;29.90;9.60;;;;;;;3.99;68.83;99231.73;106164;1274;107661;-74
2022/02/08 15:50:31;;;;;;;31.00;9.30;;;;;;;3.99;68.53;99228.05;106099;1274;98667;-76
2022/02/08 15:58:20;;;;;;;28.10;9.40;;;;;;;3.97;68.49;99214.14;106179;1274;97906;-73
2022/02/08 16:09:26;;;;;;;34.60;9.50;;;;;;;3.92;68.47;99212.77;106179;1274;111390;-73
2022/02/08 16:14:54;;;;;;;26.90;8.30;;;;;;;3.92;68.33;99217.85;106180;1274;107755;-76
2022/02/08 16:20:30;;;;;;;26.50;7.10;;;;;;;3.89;68.13;99221.13;106196;1274;97853;-74
2022/02/08 16:25:55;;;;;;;23.00;6.90;;;;;;;3.83;67.79;99232.41;106170;1274;98069;-74
2022/02/08 16:52:03;;;;;;;25.90;7.60;;;;;;;3.35;67.98;99215.46;106158;1274;111163;-75
2022/02/08 16:53:12;;;;;;;23.20;7.60;;;;;;;3.32;67.94;99215.08;105975;1274;96672;-75
2022/02/08 16:58:22;;;;;;;25.60;8.30;;;;;;;3.22;67.89;99215.98;106156;1274;97850;-74
2022/02/08 17:00:57;;;;;;;24.20;7.70;;;;;;;3.19;68.15;99219.10;106163;1274;97889;-72
2022/02/08 17:03:44;;;;;;;24.80;7.30;;;;;;;3.18;67.98;99215.43;106152;1274;110861;-73
2022/02/08 17:06:20;;;;;;;22.90;7.60;;;;;;;3.19;68.11;99214.00;106149;1274;97886;-74
2022/02/08 17:08:54;;;;;;;28.40;8.40;;;;;;;3.16;68.13;99212.36;106139;1274;105996;-78
2022/02/08 17:11:32;;;;;;;27.20;8.40;;;;;;;3.13;68.12;99208.10;106148;1274;97918;-77
2022/02/08 17:14:53;;;;;;;22.90;7.80;;;;;;;3.09;68.28;99208.77;106159;1274;98643;-79
2022/02/08 17:47:18;;;;;;;25.90;8.50;;;;;;;2.86;68.63;99177.29;106250;1274;95278;-76
2022/02/08 17:49:46;;;;;;;23.60;8.60;;;;;;;2.81;68.79;99174.33;106216;1274;108597;-79
2022/02/08 17:52:14;;;;;;;25.30;9.40;;;;;;;2.78;68.34;99166.52;106123;1274;95395;-77
2022/02/08 17:54:43;;;;;;;24.50;9.20;;;;;;;2.74;68.88;99159.33;106218;1274;97877;-74
2022/02/08 17:57:13;;;;;;;26.80;9.40;;;;;;;2.71;68.75;99160.70;106158;1274;110130;-78
2022/02/08 17:59:43;;;;;;;25.50;8.80;;;;;;;2.69;69.01;99158.84;106153;1276;97889;-73
2022/02/08 18:02:11;;;;;;;24.50;8.20;;;;;;;2.68;68.86;99161.67;106109;1274;107799;-76
2022/02/08 18:04:39;;;;;;;25.80;8.90;;;;;;;2.66;68.93;99158.59;106145;1274;97972;-75
2022/02/08 18:07:08;;;;;;;23.90;10.10;;;;;;;2.65;69.03;99157.23;106232;1274;97090;-74
2022/02/08 18:09:37;;;;;;;26.20;9.80;;;;;;;2.65;69.30;99157.60;106229;1274;111841;-75
2022/02/08 18:12:06;;;;;;;24.30;8.70;;;;;;;2.63;69.40;99155.75;106155;1274;97995;-73
2022/02/08 18:14:34;;;;;;;30.20;8.60;;;;;;;2.63;69.49;99154.89;106135;1274;106727;-75
2022/02/08 18:17:17;;;;;;;23.40;9.40;;;;;;;2.63;69.49;99158.73;105953;1275;97946;-73
2022/02/08 18:19:55;;;;;;;25.10;9.10;;;;;;;2.63;69.85;99155.02;106160;1274;97770;-74
2022/02/08 18:27:46;;;;;;;27.10;9.20;;;;;;;2.71;69.95;99158.92;106140;1274;107843;-74
2022/02/08 19:03:55;;;;;;;27.90;10.70;;;;;;;2.96;70.76;99149.88;106005;1274;111397;-71
2022/02/08 19:22:08;;;;;;;28.10;9.90;;;;;;;2.99;71.44;99150.50;106082;1274;107754;-75
2022/02/08 19:24:35;;;;;;;25.30;8.80;;;;;;;3.00;71.56;99152.02;106227;1272;97902;-73
2022/02/08 19:27:04;;;;;;;24.50;8.50;;;;;;;3.01;71.63;99148.49;106178;1274;97863;-74
2022/02/08 19:29:35;;;;;;;22.80;8.80;;;;;;;3.01;71.68;99155.68;106180;1274;109888;-74
2022/02/08 19:32:07;;;;;;;25.10;8.90;;;;;;;3.02;71.39;99150.93;106160;1274;97681;-74
2022/02/08 19:34:40;;;;;;;27.20;8.60;;;;;;;3.04;71.47;99151.19;106131;1274;107762;-74
2022/02/08 19:37:11;;;;;;;26.20;10.00;;;;;;;3.05;71.96;99155.83;106156;1274;95300;-75
2022/02/08 19:39:41;;;;;;;23.30;10.00;;;;;;;3.07;71.36;99154.02;106127;1274;95992;-74
2022/02/08 19:42:10;;;;;;;27.50;10.40;;;;;;;3.09;71.96;99151.48;106110;1274;111381;-74
2022/02/08 19:44:40;;;;;;;27.40;9.10;;;;;;;3.12;71.58;99154.35;106178;1274;96344;-73
2022/02/08 19:47:09;;;;;;;25.20;10.50;;;;;;;3.14;71.94;99158.83;106176;1274;107856;-73
2022/02/08 19:49:37;;;;;;;26.20;11.20;;;;;;;3.16;72.75;99150.86;106187;1274;95953;-73